Time;durP1;ratioP1;P1;durP2;ratioP2;P2;SDS_P1;SDS_P2;PMS_P1;PMS_P2;Temp;Humidity;BMP_temperature;BMP_pressure;BME280_temperature;BME280_humidity;BME280_pressure;Samples;Min_cycle;Max_cycle;Signal;HPM_P1;HPM_P2
2021/09/11 00:00:06;;;;;;;0.20;0.20;;;;;;;12.93;88.56;100085.84;5112530;28;20047;-68
2021/09/11 00:02:32;;;;;;;0.20;0.20;;;;;;;12.89;88.41;100082.59;5094315;28;20060;-70
2021/09/11 00:04:58;;;;;;;0.20;0.20;;;;;;;12.82;87.84;100078.78;5109289;28;20504;-68
2021/09/11 00:07:23;;;;;;;0.20;0.20;;;;;;;12.79;88.07;100085.38;5073769;28;20499;-69
2021/09/11 00:09:49;;;;;;;0.20;0.20;;;;;;;12.73;88.23;100086.00;5074184;28;20499;-67
2021/09/11 00:12:16;;;;;;;0.20;0.20;;;;;;;12.71;88.17;100084.47;5092296;28;20048;-67
2021/09/11 00:14:42;;;;;;;0.10;0.10;;;;;;;12.67;87.90;100086.63;5074591;28;20150;-66
2021/09/11 00:17:07;;;;;;;0.20;0.20;;;;;;;12.64;87.98;100081.50;5059182;28;20115;-69
2021/09/11 00:19:33;;;;;;;0.10;0.10;;;;;;;12.63;88.13;100084.38;5075131;28;20134;-68
2021/09/11 00:21:59;;;;;;;0.20;0.20;;;;;;;12.64;87.91;100077.94;5093030;28;20086;-68
2021/09/11 00:24:28;;;;;;;0.20;0.20;;;;;;;12.63;88.00;100079.81;5059013;28;20087;-68
2021/09/11 00:26:55;;;;;;;0.20;0.20;;;;;;;12.63;88.93;100079.81;5057004;28;20076;-71
2021/09/11 00:29:21;;;;;;;0.20;0.20;;;;;;;12.60;88.77;100074.69;5073545;28;20448;-68
2021/09/11 00:31:47;;;;;;;0.20;0.20;;;;;;;12.59;89.28;100078.41;5073318;28;20101;-67
2021/09/11 00:34:13;;;;;;;0.20;0.20;;;;;;;12.58;89.50;100082.13;5056767;28;20458;-69
2021/09/11 00:36:38;;;;;;;0.20;0.20;;;;;;;12.55;89.05;100085.16;5092012;28;20052;-69
2021/09/11 00:39:04;;;;;;;0.20;0.20;;;;;;;12.52;89.63;100099.00;5057457;28;20570;-69
2021/09/11 00:41:30;;;;;;;0.20;0.20;;;;;;;12.47;89.72;100085.91;5092171;28;20399;-68
2021/09/11 00:43:56;;;;;;;0.20;0.20;;;;;;;12.42;88.99;100088.22;5073481;28;20499;-72
2021/09/11 00:46:22;;;;;;;0.20;0.20;;;;;;;12.43;89.35;100094.50;5073035;28;20048;-68
2021/09/11 00:48:47;;;;;;;0.20;0.20;;;;;;;12.44;89.25;100090.78;5074235;28;20087;-68
2021/09/11 00:51:13;;;;;;;0.20;0.20;;;;;;;12.43;89.37;100092.66;5091128;28;20143;-69
2021/09/11 00:53:40;;;;;;;0.20;0.20;;;;;;;12.45;89.20;100098.75;5073510;28;20083;-69
2021/09/11 00:56:06;;;;;;;0.20;0.20;;;;;;;12.43;88.05;100089.06;5056244;28;20420;-69
2021/09/11 00:58:32;;;;;;;0.20;0.20;;;;;;;12.39;87.54;100098.50;5076173;28;20066;-70
2021/09/11 01:00:58;;;;;;;0.20;0.20;;;;;;;12.34;87.48;100088.13;5111495;28;20481;-69
2021/09/11 01:03:24;;;;;;;0.20;0.20;;;;;;;12.30;88.02;100090.28;5093083;28;20540;-69
2021/09/11 01:06:04;;;;;;;0.20;0.20;;;;;;;12.29;88.74;100094.03;5111263;28;20414;-67
2021/09/11 01:08:30;;;;;;;0.20;0.20;;;;;;;12.28;88.60;100086.88;5111563;28;20055;-68
2021/09/11 01:10:57;;;;;;;0.20;0.20;;;;;;;12.24;88.85;100093.59;5059337;28;20138;-68
2021/09/11 01:13:23;;;;;;;0.20;0.20;;;;;;;12.22;89.24;100097.50;5092366;28;20520;-69
2021/09/11 01:15:48;;;;;;;0.20;0.20;;;;;;;12.17;88.66;100095.19;5093066;28;20139;-69
2021/09/11 01:18:15;;;;;;;0.20;0.20;;;;;;;12.15;88.63;100085.53;5092653;28;20067;-68
2021/09/11 01:20:41;;;;;;;0.20;0.20;;;;;;;12.15;89.05;100086.38;5092872;28;20050;-69
2021/09/11 01:23:07;;;;;;;0.20;0.20;;;;;;;12.14;88.95;100094.66;5092673;28;20059;-68
2021/09/11 01:25:33;;;;;;;0.20;0.20;;;;;;;12.14;89.11;100090.13;5075944;28;20055;-70
2021/09/11 01:27:59;;;;;;;0.20;0.20;;;;;;;12.12;88.84;100097.53;5075690;28;20154;-72
2021/09/11 01:30:25;;;;;;;0.20;0.20;;;;;;;12.08;89.00;100096.13;5092587;28;20104;-68
2021/09/11 01:32:51;;;;;;;0.20;0.20;;;;;;;12.12;89.11;100108.38;5110716;28;20048;-69
2021/09/11 01:35:17;;;;;;;0.20;0.20;;;;;;;12.13;89.29;100110.06;5092674;28;20043;-69
2021/09/11 01:37:43;;;;;;;0.20;0.20;;;;;;;12.14;89.28;100100.06;5091642;28;20044;-68
2021/09/11 01:40:10;;;;;;;0.20;0.20;;;;;;;12.18;89.12;100113.19;5092482;28;20142;-68
2021/09/11 01:42:36;;;;;;;0.20;0.20;;;;;;;12.21;88.67;100107.47;5091959;28;20064;-68
2021/09/11 01:45:06;;;;;;;0.20;0.20;;;;;;;12.22;88.73;100105.63;5110960;28;20078;-71
2021/09/11 01:47:31;;;;;;;0.20;0.20;;;;;;;12.22;88.02;100111.88;5092690;28;20408;-71
2021/09/11 01:49:57;;;;;;;0.20;0.20;;;;;;;12.22;87.67;100117.31;5111543;28;20221;-69
2021/09/11 01:52:23;;;;;;;0.20;0.20;;;;;;;12.20;87.48;100111.16;5094834;28;20047;-69
2021/09/11 01:54:49;;;;;;;0.20;0.20;;;;;;;12.18;86.84;100113.19;5113368;28;20131;-71
2021/09/11 01:57:15;;;;;;;0.20;0.20;;;;;;;12.11;86.56;100108.53;5076770;28;20054;-69
2021/09/11 01:59:42;;;;;;;0.20;0.20;;;;;;;12.14;86.89;100113.63;5093617;28;20150;-68
2021/09/11 02:02:08;;;;;;;0.20;0.20;;;;;;;12.14;86.50;100117.22;5111398;28;20525;-69
2021/09/11 02:04:35;;;;;;;0.20;0.20;;;;;;;12.11;87.01;100119.38;5076163;28;20151;-69
2021/09/11 02:07:02;;;;;;;0.20;0.20;;;;;;;12.13;86.56;100112.78;5093698;28;20051;-68
2021/09/11 02:09:28;;;;;;;0.20;0.20;;;;;;;12.04;86.74;100117.25;5075832;28;20121;-69
2021/09/11 02:11:54;;;;;;;0.20;0.20;;;;;;;12.00;86.35;100115.00;5094064;28;20075;-67
2021/09/11 02:14:20;;;;;;;0.20;0.20;;;;;;;11.94;86.98;100102.03;5112734;28;20059;-68
2021/09/11 02:16:46;;;;;;;0.20;0.20;;;;;;;11.91;87.39;100107.75;5059832;28;20048;-67
2021/09/11 02:19:12;;;;;;;0.20;0.20;;;;;;;11.83;87.70;100098.50;5093081;28;20090;-68
2021/09/11 02:21:38;;;;;;;0.20;0.20;;;;;;;11.85;88.42;100106.50;5111022;28;20043;-70
2021/09/11 02:24:04;;;;;;;0.20;0.20;;;;;;;11.82;88.37;100104.91;5075626;28;20142;-70
2021/09/11 02:26:30;;;;;;;0.20;0.20;;;;;;;11.82;88.73;100109.47;5110940;28;20052;-69
2021/09/11 02:28:56;;;;;;;0.20;0.20;;;;;;;11.83;88.54;100106.63;5110137;28;20051;-67
2021/09/11 02:31:21;;;;;;;0.20;0.20;;;;;;;11.85;88.70;100105.63;5110198;28;20137;-67
2021/09/11 02:33:47;;;;;;;0.20;0.20;;;;;;;11.88;88.23;100106.19;5109816;28;20462;-67
2021/09/11 02:36:13;;;;;;;0.20;0.20;;;;;;;11.90;88.06;100117.72;5109882;28;20115;-68
2021/09/11 02:38:39;;;;;;;0.20;0.20;;;;;;;11.90;87.93;100114.16;5091426;28;20115;-66
2021/09/11 02:41:05;;;;;;;0.20;0.20;;;;;;;11.86;87.97;100108.19;5074749;28;20096;-68
2021/09/11 02:43:31;;;;;;;0.20;0.20;;;;;;;11.83;88.25;100103.91;5091384;28;20543;-69
2021/09/11 02:45:57;;;;;;;0.20;0.20;;;;;;;11.82;88.44;100102.19;5091749;28;20052;-70
2021/09/11 02:48:23;;;;;;;0.20;0.20;;;;;;;11.77;88.33;100099.09;5093225;28;20094;-69
2021/09/11 02:50:49;;;;;;;0.20;0.20;;;;;;;11.71;88.50;100088.81;5095620;28;20395;-69
2021/09/11 02:53:15;;;;;;;0.20;0.20;;;;;;;11.63;88.91;100091.44;5113974;28;20059;-68
2021/09/11 02:55:40;;;;;;;0.20;0.20;;;;;;;11.53;89.44;100102.28;5113905;28;20051;-69
2021/09/11 02:58:06;;;;;;;0.20;0.20;;;;;;;11.44;89.82;100102.28;5078383;28;20105;-68
2021/09/11 03:00:32;;;;;;;0.20;0.20;;;;;;;11.35;90.48;100098.59;5078668;28;20137;-69
2021/09/11 03:02:58;;;;;;;0.20;0.20;;;;;;;11.29;90.83;100097.31;5113578;28;20146;-67
2021/09/11 03:05:23;;;;;;;0.20;0.20;;;;;;;11.22;91.19;100090.78;5113671;28;20491;-69
2021/09/11 03:07:49;;;;;;;0.20;0.20;;;;;;;11.17;91.48;100089.53;5113668;28;20051;-67
2021/09/11 03:10:15;;;;;;;0.20;0.20;;;;;;;11.12;91.94;100089.97;5095126;28;20434;-67
2021/09/11 03:12:41;;;;;;;0.20;0.20;;;;;;;11.07;92.28;100084.97;5078172;28;20051;-69
2021/09/11 03:15:07;;;;;;;0.20;0.20;;;;;;;11.06;92.74;100093.22;5095090;28;20054;-69
2021/09/11 03:17:33;;;;;;;0.30;0.30;;;;;;;11.06;92.99;100090.53;5078555;28;20063;-69
2021/09/11 03:19:58;;;;;;;0.20;0.20;;;;;;;11.05;93.14;100096.94;5078491;28;20056;-71
2021/09/11 03:22:25;;;;;;;0.22;0.22;;;;;;;11.17;93.02;100095.78;5113841;28;20045;-70
2021/09/11 03:24:51;;;;;;;0.30;0.30;;;;;;;11.30;92.53;100100.91;5078303;28;20043;-69
2021/09/11 03:27:17;;;;;;;0.30;0.30;;;;;;;11.36;91.85;100100.31;5078136;28;20130;-68
2021/09/11 03:29:42;;;;;;;0.30;0.30;;;;;;;11.48;91.08;100103.69;5078169;28;20146;-70
2021/09/11 03:32:08;;;;;;;0.30;0.30;;;;;;;11.69;90.31;100093.53;5094697;28;20047;-69
2021/09/11 03:34:34;;;;;;;0.30;0.30;;;;;;;11.85;89.48;100097.50;5095231;28;20460;-68
2021/09/11 03:37:00;;;;;;;0.30;0.30;;;;;;;11.98;88.56;100089.88;5113742;28;20063;-68
2021/09/11 03:39:26;;;;;;;0.30;0.30;;;;;;;12.14;88.07;100109.09;5095313;28;20134;-70
2021/09/11 03:41:52;;;;;;;0.30;0.30;;;;;;;12.16;87.10;100098.94;5078319;28;20058;-69
2021/09/11 03:44:18;;;;;;;0.30;0.30;;;;;;;12.30;86.59;100095.72;5113342;28;20055;-69
2021/09/11 03:46:43;;;;;;;0.20;0.20;;;;;;;12.27;86.46;100106.00;5113819;28;20517;-68
2021/09/11 03:49:09;;;;;;;0.20;0.20;;;;;;;12.14;86.66;100106.38;5061153;28;20079;-69
2021/09/11 03:51:35;;;;;;;0.20;0.20;;;;;;;12.03;87.09;100109.28;5094631;28;20051;-68
2021/09/11 03:54:01;;;;;;;0.30;0.30;;;;;;;11.97;87.47;100115.28;5060942;28;20142;-71
2021/09/11 03:56:27;;;;;;;0.20;0.20;;;;;;;11.91;87.56;100110.44;5094626;28;20059;-69
2021/09/11 03:58:53;;;;;;;0.20;0.20;;;;;;;11.87;88.00;100104.47;5094891;28;20452;-70
2021/09/11 04:01:19;;;;;;;0.20;0.20;;;;;;;11.86;87.86;100112.75;5077384;28;20100;-69
2021/09/11 04:03:45;;;;;;;0.30;0.30;;;;;;;11.87;87.65;100117.16;5078051;28;20564;-73
2021/09/11 04:06:11;;;;;;;0.30;0.30;;;;;;;11.91;87.36;100110.44;5112663;28;20054;-71
2021/09/11 04:08:38;;;;;;;0.20;0.20;;;;;;;11.95;87.36;100118.13;5094384;28;20058;-68
2021/09/11 04:11:04;;;;;;;0.30;0.30;;;;;;;12.01;87.15;100111.28;5077889;28;20130;-70
2021/09/11 04:13:30;;;;;;;0.28;0.28;;;;;;;12.04;86.96;100121.81;5094008;28;20151;-71
2021/09/11 04:15:55;;;;;;;0.30;0.30;;;;;;;12.10;86.83;100110.34;5077859;28;20161;-70
2021/09/11 04:18:25;;;;;;;0.30;0.30;;;;;;;12.17;86.69;100116.88;5094500;28;20051;-68
2021/09/11 04:20:51;;;;;;;0.30;0.30;;;;;;;12.25;86.10;100111.59;5112837;28;20052;-68
2021/09/11 04:23:17;;;;;;;0.30;0.30;;;;;;;12.38;85.57;100118.50;5112779;28;20427;-69
2021/09/11 04:25:43;;;;;;;0.30;0.30;;;;;;;12.48;85.34;100113.88;5060829;28;20060;-77
2021/09/11 04:28:09;;;;;;;0.30;0.30;;;;;;;12.55;85.06;100121.25;5061005;28;20047;-71
2021/09/11 04:30:35;;;;;;;0.30;0.30;;;;;;;12.66;84.44;100120.19;5077494;28;20051;-71
2021/09/11 04:33:01;;;;;;;0.30;0.30;;;;;;;12.77;84.16;100114.53;5074852;28;20458;-70
2021/09/11 04:35:30;;;;;;;0.20;0.20;;;;;;;12.87;83.26;100113.59;5077904;28;20105;-72
2021/09/11 04:37:59;;;;;;;0.30;0.30;;;;;;;12.96;82.95;100118.97;5094315;28;20451;-73
2021/09/11 04:40:25;;;;;;;0.30;0.30;;;;;;;13.07;81.92;100123.31;5060670;28;20499;-71
2021/09/11 04:42:54;;;;;;;0.30;0.30;;;;;;;13.19;81.39;100113.91;5077381;28;20076;-70
2021/09/11 04:45:19;;;;;;;0.30;0.30;;;;;;;13.34;80.84;100110.66;5077745;28;20131;-71
2021/09/11 04:47:45;;;;;;;0.30;0.30;;;;;;;13.19;79.97;100107.63;5077183;28;20063;-72
2021/09/11 04:50:11;;;;;;;0.30;0.30;;;;;;;13.25;80.07;100110.59;5094245;28;20434;-70
2021/09/11 04:52:37;;;;;;;0.28;0.28;;;;;;;13.45;79.65;100107.69;5078212;28;20059;-72
2021/09/11 04:55:03;;;;;;;0.30;0.30;;;;;;;13.43;78.97;100104.28;5078231;28;20139;-72
2021/09/11 04:57:29;;;;;;;0.20;0.20;;;;;;;13.50;79.30;100110.78;5076964;28;20478;-75
2021/09/11 04:59:55;;;;;;;0.20;0.20;;;;;;;13.37;78.63;100104.91;5112071;28;20052;-73
2021/09/11 05:02:21;;;;;;;0.30;0.30;;;;;;;13.43;78.65;100109.72;5095079;28;20411;-72
2021/09/11 05:04:50;;;;;;;0.30;0.30;;;;;;;13.61;79.06;100106.97;5078596;28;20111;-73
2021/09/11 05:07:16;;;;;;;0.30;0.30;;;;;;;13.81;78.09;100107.59;5112729;28;20047;-72
2021/09/11 05:09:42;;;;;;;0.22;0.22;;;;;;;13.97;77.81;100110.41;5078586;28;20431;-74
2021/09/11 05:12:17;;;;;;;0.30;0.30;;;;;;;14.12;77.46;100106.06;5080368;28;20047;-72
2021/09/11 05:14:46;;;;;;;0.30;0.30;;;;;;;14.26;76.71;100101.00;5078025;28;20082;-74
2021/09/11 05:17:14;;;;;;;0.20;0.20;;;;;;;14.06;76.09;100100.41;5093837;28;20586;-71
2021/09/11 05:19:49;;;;;;;0.30;0.30;;;;;;;14.14;75.79;100095.88;5093312;28;20137;-71
2021/09/11 05:22:18;;;;;;;0.30;0.30;;;;;;;14.22;75.25;100101.34;5076643;28;20055;-72
2021/09/11 05:24:46;;;;;;;0.30;0.30;;;;;;;14.29;75.14;100092.53;5076666;28;20078;-73
2021/09/11 05:27:15;;;;;;;0.30;0.30;;;;;;;14.54;74.13;100097.06;5093894;28;20073;-72
2021/09/11 05:29:41;;;;;;;0.30;0.30;;;;;;;14.78;73.36;100096.28;5059708;28;20423;-71
2021/09/11 05:32:07;;;;;;;0.40;0.40;;;;;;;15.17;72.52;100096.50;5107838;28;20074;-70
2021/09/11 05:34:33;;;;;;;0.50;0.50;;;;;;;15.56;70.52;100095.75;5055392;28;20376;-70
2021/09/11 05:36:58;;;;;;;0.90;0.90;;;;;;;16.78;66.34;100101.84;5076034;28;20071;-71
2021/09/11 05:39:26;;;;;;;0.70;0.70;;;;;;;17.50;63.04;100096.81;5093107;28;20054;-72
2021/09/11 05:41:54;;;;;;;0.50;0.50;;;;;;;17.65;62.93;100098.75;5076305;28;20048;-72
2021/09/11 05:44:19;;;;;;;0.30;0.30;;;;;;;17.34;63.50;100105.19;5093078;28;20050;-72
2021/09/11 05:46:45;;;;;;;0.30;0.30;;;;;;;17.34;63.68;100102.47;5092847;28;20089;-73
2021/09/11 05:49:12;;;;;;;0.30;0.30;;;;;;;17.38;63.18;100097.47;5060152;28;20063;-74
2021/09/11 05:51:40;;;;;;;0.30;0.30;;;;;;;17.30;63.52;100101.13;5094548;28;20051;-73
2021/09/11 05:54:08;;;;;;;0.50;0.50;;;;;;;17.80;62.85;100094.16;5113204;28;20139;-75
2021/09/11 05:56:35;;;;;;;1.00;1.00;;;;;;;19.40;57.79;100095.06;5112424;28;20051;-75
2021/09/11 05:59:01;;;;;;;0.40;0.40;;;;;;;20.32;54.91;100102.25;5085674;28;20121;-71
2021/09/11 06:01:27;;;;;;;0.40;0.40;;;;;;;20.73;53.70;100106.03;5071985;28;20076;-67
2021/09/11 06:03:52;;;;;;;0.40;0.40;;;;;;;20.71;53.76;100098.03;5072156;28;20060;-70
2021/09/11 06:06:18;;;;;;;0.30;0.30;;;;;;;20.63;53.24;100103.72;5090558;28;20574;-70
2021/09/11 06:08:44;;;;;;;0.77;0.77;;;;;;;20.20;54.20;100098.41;5071747;28;20055;-74
2021/09/11 06:11:10;;;;;;;0.90;0.90;;;;;;;20.67;53.67;100097.59;5055193;28;20056;-72
2021/09/11 06:13:36;;;;;;;0.40;0.40;;;;;;;21.14;51.49;100093.06;5071926;28;20079;-72
2021/09/11 06:16:03;;;;;;;0.20;0.20;;;;;;;20.44;52.65;100092.41;5055624;28;20070;-73
2021/09/11 06:18:29;;;;;;;0.20;0.20;;;;;;;19.99;54.35;100094.69;5073130;28;20056;-75
2021/09/11 06:20:55;;;;;;;0.20;0.20;;;;;;;19.74;54.60;100090.72;5072800;28;20055;-77
2021/09/11 06:23:22;;;;;;;0.20;0.20;;;;;;;18.82;57.52;100094.28;5048711;28;20053;-74
2021/09/11 06:25:48;;;;;;;0.30;0.30;;;;;;;18.76;57.63;100095.06;5034537;28;20463;-74
2021/09/11 06:28:14;;;;;;;0.30;0.30;;;;;;;18.81;58.36;100095.31;5083198;28;20048;-77
2021/09/11 06:30:40;;;;;;;0.30;0.30;;;;;;;18.00;59.64;100092.59;5063742;28;20560;-75
2021/09/11 06:33:06;;;;;;;0.30;0.30;;;;;;;17.84;60.65;100092.75;5087065;28;20158;-73
2021/09/11 06:35:34;;;;;;;0.30;0.30;;;;;;;17.73;61.27;100095.91;5084721;28;20159;-75
2021/09/11 06:37:59;;;;;;;0.20;0.20;;;;;;;18.14;60.20;100103.72;5029038;28;20568;-75
2021/09/11 06:40:25;;;;;;;0.30;0.30;;;;;;;17.98;60.18;100093.81;5030965;28;20061;-71
2021/09/11 06:42:51;;;;;;;0.30;0.30;;;;;;;17.88;61.43;100094.09;4997888;28;20553;-74
2021/09/11 06:45:17;;;;;;;0.30;0.30;;;;;;;17.65;62.45;100104.22;4996747;28;20117;-74
2021/09/11 06:47:43;;;;;;;0.30;0.30;;;;;;;17.70;62.03;100101.78;5007408;28;20523;-74
2021/09/11 06:50:09;;;;;;;0.30;0.30;;;;;;;17.75;62.55;100099.31;5010521;28;20149;-73
2021/09/11 06:52:35;;;;;;;0.30;0.30;;;;;;;17.68;63.13;100109.31;5032668;28;20055;-72
2021/09/11 06:55:02;;;;;;;0.30;0.30;;;;;;;18.03;61.76;100094.94;5022305;28;20052;-73
2021/09/11 06:57:28;;;;;;;0.30;0.30;;;;;;;18.26;61.48;100108.53;5042781;28;20059;-74
2021/09/11 06:59:54;;;;;;;0.30;0.30;;;;;;;18.17;61.31;100098.72;5029990;28;20049;-73
2021/09/11 07:02:20;;;;;;;0.30;0.30;;;;;;;18.12;62.18;100103.06;5023537;28;20064;-73
2021/09/11 07:04:46;;;;;;;0.30;0.30;;;;;;;18.25;61.83;100103.25;5027078;28;20095;-72
2021/09/11 07:07:12;;;;;;;0.30;0.30;;;;;;;18.11;62.18;100106.84;5011989;28;20590;-72
2021/09/11 07:09:37;;;;;;;0.30;0.30;;;;;;;17.87;63.02;100099.75;5045211;28;20049;-72
2021/09/11 07:12:03;;;;;;;0.40;0.40;;;;;;;18.24;61.51;100107.00;5022883;28;20456;-74
2021/09/11 07:14:29;;;;;;;0.40;0.40;;;;;;;18.42;61.31;100099.25;4979227;28;20058;-73
2021/09/11 07:16:55;;;;;;;0.90;0.90;;;;;;;19.08;59.96;100106.56;4998832;28;20068;-72
2021/09/11 07:19:21;;;;;;;0.40;0.40;;;;;;;19.31;58.78;100111.88;5009008;28;20118;-72
2021/09/11 07:21:46;;;;;;;0.40;0.40;;;;;;;19.33;58.79;100102.38;4994374;28;20521;-73
2021/09/11 07:24:13;;;;;;;0.30;0.30;;;;;;;19.36;58.38;100109.38;4994836;28;20049;-72
2021/09/11 07:26:39;;;;;;;0.30;0.30;;;;;;;19.02;59.54;100103.56;5009343;28;20509;-72
2021/09/11 07:29:04;;;;;;;0.40;0.40;;;;;;;19.18;58.64;100101.59;5007314;28;20060;-72
2021/09/11 07:31:30;;;;;;;0.40;0.40;;;;;;;19.40;58.15;100095.06;5044577;28;20056;-72
2021/09/11 07:33:56;;;;;;;0.30;0.30;;;;;;;18.79;59.67;100100.13;5031935;28;20049;-72
2021/09/11 07:36:22;;;;;;;0.40;0.40;;;;;;;18.60;59.95;100103.47;5018225;28;20065;-73
2021/09/11 07:38:48;;;;;;;0.40;0.40;;;;;;;18.86;59.35;100103.78;5000627;28;20045;-73
2021/09/11 07:41:13;;;;;;;0.30;0.30;;;;;;;19.20;58.93;100099.53;5018344;28;20061;-72
2021/09/11 07:43:39;;;;;;;0.40;0.40;;;;;;;19.63;57.52;100096.75;5018935;28;20045;-72
2021/09/11 07:46:05;;;;;;;0.70;0.70;;;;;;;20.26;55.40;100099.47;5019220;28;20453;-72
2021/09/11 07:48:31;;;;;;;0.40;0.40;;;;;;;20.21;55.00;100097.34;5035803;28;20069;-72
2021/09/11 07:50:56;;;;;;;0.30;0.30;;;;;;;20.01;56.19;100085.41;5019008;28;20053;-72
2021/09/11 07:53:22;;;;;;;0.30;0.30;;;;;;;20.33;55.92;100090.25;5018745;28;20048;-73
2021/09/11 07:55:48;;;;;;;0.30;0.30;;;;;;;19.64;56.23;100079.25;5018594;28;20055;-73
2021/09/11 07:58:14;;;;;;;0.30;0.30;;;;;;;19.15;57.40;100082.81;5034378;28;20049;-76
2021/09/11 08:00:40;;;;;;;0.30;0.30;;;;;;;19.46;57.57;100083.31;5018462;28;20048;-74
2021/09/11 08:03:05;;;;;;;0.30;0.30;;;;;;;19.96;56.85;100075.91;5018575;28;20485;-73
2021/09/11 08:05:31;;;;;;;0.40;0.40;;;;;;;19.43;56.83;100072.72;5034830;28;20552;-72
2021/09/11 08:07:57;;;;;;;0.30;0.30;;;;;;;19.61;57.24;100068.66;5001202;28;20057;-72
2021/09/11 08:10:23;;;;;;;0.30;0.30;;;;;;;19.37;57.01;100068.03;5001983;28;20069;-72
2021/09/11 08:12:49;;;;;;;0.30;0.30;;;;;;;18.99;58.33;100071.06;5001842;28;20397;-73
2021/09/11 08:15:16;;;;;;;0.30;0.30;;;;;;;19.10;58.75;100077.06;5018262;28;20068;-72
2021/09/11 08:17:43;;;;;;;0.30;0.30;;;;;;;18.90;58.78;100066.75;5017506;28;20072;-73
2021/09/11 08:20:09;;;;;;;0.25;0.25;;;;;;;19.04;59.28;100068.56;5053048;28;20194;-73
2021/09/11 08:22:35;;;;;;;0.30;0.30;;;;;;;18.86;59.09;100068.19;5034682;28;20136;-72
2021/09/11 08:25:01;;;;;;;0.30;0.30;;;;;;;18.73;58.87;100077.13;5018759;28;20480;-73
2021/09/11 08:27:27;;;;;;;0.30;0.30;;;;;;;18.95;58.47;100080.72;5002430;28;20056;-73
2021/09/11 08:29:53;;;;;;;0.20;0.20;;;;;;;18.83;59.06;100071.34;5002944;28;20060;-73
2021/09/11 08:32:19;;;;;;;0.20;0.20;;;;;;;18.58;59.70;100067.22;5035229;28;20420;-72
2021/09/11 08:34:44;;;;;;;0.20;0.20;;;;;;;18.56;59.10;100071.00;5034115;28;20053;-73
2021/09/11 08:37:10;;;;;;;0.20;0.20;;;;;;;18.46;59.33;100073.19;5022506;28;20589;-73
2021/09/11 08:39:36;;;;;;;0.20;0.20;;;;;;;18.22;60.10;100073.53;5038687;28;20048;-72
2021/09/11 08:42:02;;;;;;;0.20;0.20;;;;;;;18.20;60.19;100072.84;5022236;28;20127;-73
2021/09/11 08:44:29;;;;;;;0.20;0.20;;;;;;;18.16;60.64;100069.66;5022451;28;20063;-72
2021/09/11 08:46:55;;;;;;;0.20;0.20;;;;;;;17.93;61.63;100064.28;5054793;28;20569;-72
2021/09/11 08:49:21;;;;;;;0.20;0.20;;;;;;;17.95;62.21;100075.91;5037441;28;20057;-72
2021/09/11 08:51:47;;;;;;;0.20;0.20;;;;;;;17.94;62.10;100070.59;5072091;28;20117;-72
2021/09/11 08:54:18;;;;;;;0.20;0.20;;;;;;;17.77;60.80;100067.19;5021104;28;20136;-72
2021/09/11 08:56:45;;;;;;;0.20;0.20;;;;;;;17.73;62.71;100060.38;5053795;28;20530;-73
2021/09/11 08:59:12;;;;;;;0.20;0.20;;;;;;;17.57;63.03;100070.44;5071861;28;20063;-71
2021/09/11 09:01:39;;;;;;;0.20;0.20;;;;;;;17.59;63.23;100057.44;5053551;28;20048;-73
2021/09/11 09:04:06;;;;;;;0.20;0.20;;;;;;;17.50;63.28;100057.72;5037206;28;20048;-72
2021/09/11 09:06:33;;;;;;;0.20;0.20;;;;;;;17.49;63.22;100066.97;5053897;28;20045;-72
2021/09/11 09:09:12;;;;;;;0.20;0.20;;;;;;;17.29;62.51;100047.47;5053948;28;20099;-72
2021/09/11 09:11:39;;;;;;;0.20;0.20;;;;;;;17.24;63.56;100053.50;5071823;28;20053;-72
2021/09/11 09:14:07;;;;;;;0.20;0.20;;;;;;;17.37;63.40;100058.38;5053446;28;20139;-72
2021/09/11 09:16:38;;;;;;;0.20;0.20;;;;;;;17.27;64.21;100060.50;5071132;28;20060;-70
2021/09/11 09:19:18;;;;;;;0.20;0.20;;;;;;;17.14;64.90;100057.53;5053294;28;20052;-72
2021/09/11 09:21:45;;;;;;;0.20;0.20;;;;;;;17.32;64.49;100056.16;5036750;28;20053;-72
2021/09/11 09:24:13;;;;;;;0.20;0.20;;;;;;;17.21;64.77;100053.03;5071121;28;20052;-71
2021/09/11 09:26:59;;;;;;;0.20;0.20;;;;;;;17.17;64.73;100047.09;5071107;28;20060;-72
2021/09/11 09:29:25;;;;;;;0.20;0.20;;;;;;;17.25;64.53;100044.28;5053031;28;20462;-72
2021/09/11 09:31:56;;;;;;;0.20;0.20;;;;;;;17.16;65.00;100041.81;5036458;28;20048;-72
2021/09/11 09:34:34;;;;;;;0.20;0.20;;;;;;;17.18;64.83;100045.19;5054012;28;20420;-73
2021/09/11 09:37:07;;;;;;;0.20;0.20;;;;;;;17.17;64.72;100048.97;5053189;28;20052;-72
2021/09/11 09:39:43;;;;;;;0.20;0.20;;;;;;;16.94;64.42;100051.72;5003921;28;20488;-71
2021/09/11 09:42:10;;;;;;;0.20;0.20;;;;;;;17.08;63.03;100042.75;5027607;28;20069;-72
2021/09/11 09:44:50;;;;;;;0.20;0.20;;;;;;;17.03;63.13;100034.22;4996857;28;20072;-72
2021/09/11 09:47:22;;;;;;;0.20;0.20;;;;;;;16.97;62.66;100035.81;5031255;28;20527;-73
2021/09/11 09:50:06;;;;;;;0.20;0.20;;;;;;;16.80;62.67;100036.97;5013784;28;20112;-72
2021/09/11 09:52:33;;;;;;;0.20;0.20;;;;;;;16.87;63.57;100040.69;5013438;28;20065;-72
2021/09/11 09:54:59;;;;;;;0.20;0.20;;;;;;;17.11;63.36;100026.84;4996871;28;20111;-72
2021/09/11 09:57:25;;;;;;;0.20;0.20;;;;;;;17.13;64.43;100029.38;5012909;28;20053;-72
2021/09/11 09:59:51;;;;;;;0.20;0.20;;;;;;;16.82;67.54;100034.94;4980587;28;20111;-73
2021/09/11 10:02:17;;;;;;;0.20;0.20;;;;;;;16.62;68.81;100027.16;5013458;28;20061;-72
2021/09/11 10:04:42;;;;;;;0.20;0.20;;;;;;;16.44;68.69;100029.34;4981034;28;20060;-72
2021/09/11 10:07:09;;;;;;;0.20;0.20;;;;;;;16.48;68.59;100022.47;4996730;28;20049;-73
2021/09/11 10:09:36;;;;;;;0.20;0.20;;;;;;;16.54;69.02;100027.22;5013418;28;20057;-72
2021/09/11 10:12:02;;;;;;;0.20;0.20;;;;;;;16.52;69.79;100023.81;4996675;28;20088;-72
2021/09/11 10:14:33;;;;;;;0.20;0.20;;;;;;;16.67;68.57;100023.03;5030360;28;20459;-73
2021/09/11 10:17:05;;;;;;;0.30;0.30;;;;;;;16.90;68.15;100015.75;5032167;28;20048;-72
2021/09/11 10:19:36;;;;;;;0.30;0.30;;;;;;;16.85;68.92;100015.44;5032766;28;20127;-73
2021/09/11 10:22:24;;;;;;;0.20;0.20;;;;;;;16.96;69.11;100016.88;5016485;28;20067;-73
2021/09/11 10:25:01;;;;;;;0.20;0.20;;;;;;;16.96;68.71;99998.59;5015797;28;20053;-73
2021/09/11 10:27:34;;;;;;;0.20;0.20;;;;;;;17.08;67.81;100010.81;5032913;28;20077;-73
2021/09/11 10:30:04;;;;;;;0.20;0.20;;;;;;;17.02;67.97;100010.69;5032413;28;20045;-73
2021/09/11 10:32:46;;;;;;;0.30;0.30;;;;;;;17.07;68.20;100002.78;5029113;28;20045;-72
2021/09/11 10:35:22;;;;;;;0.30;0.30;;;;;;;17.17;68.89;99997.06;5013247;28;20130;-72
2021/09/11 10:37:52;;;;;;;0.20;0.20;;;;;;;17.31;68.83;99993.50;5018294;28;20115;-71
2021/09/11 10:40:34;;;;;;;0.20;0.20;;;;;;;17.72;67.73;99995.78;5028830;28;20045;-71
2021/09/11 10:43:15;;;;;;;0.20;0.20;;;;;;;17.28;69.06;99985.69;5032053;28;20064;-73
2021/09/11 10:45:52;;;;;;;0.20;0.20;;;;;;;17.21;69.24;99987.44;5050271;28;20089;-72
2021/09/11 10:48:39;;;;;;;0.20;0.20;;;;;;;16.95;68.64;99988.72;5031936;28;20044;-72
2021/09/11 10:51:17;;;;;;;0.20;0.20;;;;;;;17.33;67.78;99980.50;5032267;28;20136;-71
2021/09/11 10:54:18;;;;;;;0.20;0.20;;;;;;;17.38;67.39;99983.53;5049899;28;20535;-73
2021/09/11 10:56:47;;;;;;;0.20;0.20;;;;;;;17.18;68.29;99977.75;5032252;28;20049;-74
2021/09/11 10:59:15;;;;;;;0.20;0.20;;;;;;;17.27;68.96;99975.78;5032566;28;20049;-72
2021/09/11 11:02:03;;;;;;;0.20;0.20;;;;;;;17.47;68.65;99976.91;5032352;28;20151;-72
2021/09/11 11:04:30;;;;;;;0.20;0.20;;;;;;;17.54;68.48;99983.34;5032249;28;20106;-73
2021/09/11 11:06:58;;;;;;;0.28;0.28;;;;;;;17.62;68.29;99979.66;5032484;28;20132;-72
2021/09/11 11:09:25;;;;;;;0.30;0.30;;;;;;;17.59;69.14;99974.59;5033687;28;20116;-72
2021/09/11 11:11:53;;;;;;;0.30;0.30;;;;;;;17.72;68.19;99962.97;5052724;28;20064;-69
2021/09/11 11:14:19;;;;;;;0.20;0.20;;;;;;;17.71;68.64;99962.13;5035854;28;20064;-72
2021/09/11 11:16:54;;;;;;;0.30;0.30;;;;;;;17.81;68.23;99956.41;5035976;28;20057;-72
2021/09/11 11:19:27;;;;;;;0.30;0.30;;;;;;;17.71;68.43;99955.81;5020056;28;20045;-72
2021/09/11 11:21:59;;;;;;;0.20;0.20;;;;;;;18.05;68.08;99952.47;5019579;28;20087;-71
2021/09/11 11:24:28;;;;;;;0.30;0.30;;;;;;;18.10;67.11;99949.16;5035861;28;20472;-72
2021/09/11 11:26:54;;;;;;;0.30;0.30;;;;;;;18.10;67.65;99949.16;5035826;28;20741;-72